sensor_id;sensor_type;location;lat;lon;timestamp;temperature;humidity
21340;DHT22;10828;47.064;15.422;2023-07-20T11:19:42;27.60;99.90
21340;DHT22;10828;47.064;15.422;2023-07-20T11:22:08;27.50;99.90
21340;DHT22;10828;47.064;15.422;2023-07-20T11:24:34;27.20;99.90
21340;DHT22;10828;47.064;15.422;2023-07-20T11:27:22;27.00;99.90
21340;DHT22;10828;47.064;15.422;2023-07-20T11:30:16;26.90;99.90
21340;DHT22;10828;47.064;15.422;2023-07-20T11:32:47;26.90;99.90
21340;DHT22;10828;47.064;15.422;2023-07-20T11:35:13;26.70;99.90
21340;DHT22;10828;47.064;15.422;2023-07-20T11:37:40;26.70;99.90
21340;DHT22;10828;47.064;15.422;2023-07-20T11:40:09;26.70;99.90
21340;DHT22;10828;47.064;15.422;2023-07-20T11:42:35;26.70;99.90
21340;DHT22;10828;47.064;15.422;2023-07-20T11:45:03;26.50;99.90
21340;DHT22;10828;47.064;15.422;2023-07-20T11:47:30;26.30;99.90
21340;DHT22;10828;47.064;15.422;2023-07-20T11:50:02;26.40;99.90
21340;DHT22;10828;47.064;15.422;2023-07-20T11:52:28;26.30;99.90
21340;DHT22;10828;47.064;15.422;2023-07-20T11:54:54;26.50;99.90
21340;DHT22;10828;47.064;15.422;2023-07-20T11:57:20;26.70;99.90
21340;DHT22;10828;47.064;15.422;2023-07-20T12:00:04;26.70;99.90
21340;DHT22;10828;47.064;15.422;2023-07-20T12:02:34;26.70;99.90
21340;DHT22;10828;47.064;15.422;2023-07-20T12:05:01;26.70;99.90
21340;DHT22;10828;47.064;15.422;2023-07-20T12:07:28;26.90;99.90
21340;DHT22;10828;47.064;15.422;2023-07-20T12:10:12;26.70;99.90
21340;DHT22;10828;47.064;15.422;2023-07-20T12:12:41;26.90;99.90
21340;DHT22;10828;47.064;15.422;2023-07-20T12:15:19;27.00;99.90
21340;DHT22;10828;47.064;15.422;2023-07-20T12:17:50;27.10;99.90
21340;DHT22;10828;47.064;15.422;2023-07-20T12:20:36;27.10;99.90
21340;DHT22;10828;47.064;15.422;2023-07-20T12:23:12;27.20;99.90
21340;DHT22;10828;47.064;15.422;2023-07-20T12:25:39;27.40;99.90
21340;DHT22;10828;47.064;15.422;2023-07-20T12:28:10;27.50;99.90
21340;DHT22;10828;47.064;15.422;2023-07-20T12:30:40;27.60;99.90
21340;DHT22;10828;47.064;15.422;2023-07-20T12:33:06;27.60;99.90
21340;DHT22;10828;47.064;15.422;2023-07-20T12:35:32;27.50;99.90
21340;DHT22;10828;47.064;15.422;2023-07-20T12:37:59;27.40;99.90
21340;DHT22;10828;47.064;15.422;2023-07-20T12:40:25;27.10;99.90
21340;DHT22;10828;47.064;15.422;2023-07-20T12:42:50;27.00;99.90
21340;DHT22;10828;47.064;15.422;2023-07-20T12:45:16;26.70;99.90
21340;DHT22;10828;47.064;15.422;2023-07-20T12:47:45;26.50;99.90
21340;DHT22;10828;47.064;15.422;2023-07-20T12:50:13;26.30;99.90
21340;DHT22;10828;47.064;15.422;2023-07-20T12:52:40;26.20;99.90
21340;DHT22;10828;47.064;15.422;2023-07-20T12:55:08;26.10;99.90
21340;DHT22;10828;47.064;15.422;2023-07-20T12:57:35;26.10;99.90
21340;DHT22;10828;47.064;15.422;2023-07-20T13:00:04;26.00;99.90
21340;DHT22;10828;47.064;15.422;2023-07-20T13:06:32;25.10;99.90
21340;DHT22;10828;47.064;15.422;2023-07-20T21:12:17;21.10;99.90
21340;DHT22;10828;47.064;15.422;2023-07-20T21:14:43;21.10;99.90
21340;DHT22;10828;47.064;15.422;2023-07-20T21:17:10;21.10;99.90
